NOZ4PD ENGM-ENAL
Flight info
| Callsign | NOZ4PD |
|---|---|
| Flight time | 0h 42m |
| Altitude | 34000 |
| Route | EVTOG DCT UTRUF DCT UFGUG DCT OBITI |
| Aircraft | B738/M-SDE2E3FGHIRWXY/LB1 |
Departure
| Time | 2026-05-07 06:55 |
|---|---|
| Airport | Oslo-Gardermoen International Airport (ENGM) |
Arrival
| Time | 2026-05-07 07:37 |
|---|---|
| Airport | Ålesund Airport (ENAL) |
| Time | Latitude | Longitude | Altitude | Speed | Heading |
|---|---|---|---|---|---|
| 2026-05-07 06:33 | 60.19612 | 11.09130 | 681 ft | 0 kts | 196° |
| 2026-05-07 06:46 | 60.19617 | 11.09133 | 681 ft | 2 kts | 194° |
| 2026-05-07 06:46 | 60.19633 | 11.09141 | 680 ft | 2 kts | 197° |
| 2026-05-07 06:47 | 60.19643 | 11.09147 | 680 ft | 2 kts | 199° |
| 2026-05-07 06:47 | 60.19659 | 11.09157 | 680 ft | 2 kts | 197° |
| 2026-05-07 06:47 | 60.19667 | 11.09161 | 680 ft | 0 kts | 196° |
| 2026-05-07 06:50 | 60.19666 | 11.09161 | 680 ft | 1 kts | 200° |
| 2026-05-07 06:50 | 60.19667 | 11.09147 | 680 ft | 1 kts | 285° |
| 2026-05-07 06:50 | 60.19682 | 11.09130 | 678 ft | 6 kts | 324° |
| 2026-05-07 06:51 | 60.19729 | 11.09032 | 678 ft | 14 kts | 302° |
| 2026-05-07 06:51 | 60.19767 | 11.08801 | 672 ft | 20 kts | 285° |
| 2026-05-07 06:51 | 60.19698 | 11.08629 | 677 ft | 19 kts | 196° |
| 2026-05-07 06:51 | 60.19553 | 11.08547 | 678 ft | 25 kts | 196° |
| 2026-05-07 06:52 | 60.19358 | 11.08434 | 679 ft | 33 kts | 196° |
| 2026-05-07 06:52 | 60.19136 | 11.08304 | 678 ft | 32 kts | 195° |
| 2026-05-07 06:52 | 60.18920 | 11.08184 | 671 ft | 33 kts | 196° |
| 2026-05-07 06:52 | 60.18771 | 11.08096 | 668 ft | 20 kts | 197° |
| 2026-05-07 06:53 | 60.18637 | 11.08015 | 666 ft | 20 kts | 196° |
| 2026-05-07 06:53 | 60.18538 | 11.07898 | 664 ft | 16 kts | 264° |
| 2026-05-07 06:53 | 60.18564 | 11.07695 | 664 ft | 10 kts | 285° |
| 2026-05-07 06:53 | 60.18583 | 11.07560 | 664 ft | 10 kts | 289° |
| 2026-05-07 06:54 | 60.18632 | 11.07462 | 663 ft | 10 kts | 347° |
| 2026-05-07 06:54 | 60.18691 | 11.07483 | 664 ft | 9 kts | 17° |
| 2026-05-07 06:54 | 60.18801 | 11.07548 | 665 ft | 39 kts | 16° |
| 2026-05-07 06:54 | 60.19300 | 11.07836 | 666 ft | 108 kts | 15° |
| 2026-05-07 06:55 | 60.20212 | 11.08347 | 746 ft | 154 kts | 14° |
| 2026-05-07 06:55 | 60.21256 | 11.08962 | 1418 ft | 160 kts | 15° |
| 2026-05-07 06:55 | 60.22320 | 11.09576 | 2240 ft | 162 kts | 15° |
| 2026-05-07 06:55 | 60.23441 | 11.10182 | 2962 ft | 172 kts | 14° |
| 2026-05-07 06:56 | 60.24642 | 11.10824 | 3594 ft | 187 kts | 14° |
| 2026-05-07 06:56 | 60.25958 | 11.11362 | 4174 ft | 201 kts | 1° |
| 2026-05-07 06:56 | 60.27435 | 11.11043 | 4438 ft | 228 kts | 351° |
| 2026-05-07 06:56 | 60.29094 | 11.10472 | 4783 ft | 254 kts | 343° |
| 2026-05-07 06:57 | 60.30601 | 11.08562 | 5458 ft | 262 kts | 313° |
| 2026-05-07 06:57 | 60.31794 | 11.05859 | 6392 ft | 262 kts | 311° |
| 2026-05-07 06:57 | 60.32992 | 11.03076 | 7237 ft | 264 kts | 310° |
| 2026-05-07 06:57 | 60.34198 | 11.00297 | 8186 ft | 263 kts | 311° |
| 2026-05-07 06:58 | 60.35427 | 10.97496 | 8953 ft | 268 kts | 311° |
| 2026-05-07 06:58 | 60.36685 | 10.94658 | 9778 ft | 272 kts | 311° |
| 2026-05-07 06:58 | 60.37962 | 10.91799 | 10495 ft | 279 kts | 311° |
| 2026-05-07 06:58 | 60.39322 | 10.88768 | 10727 ft | 303 kts | 311° |
| 2026-05-07 06:59 | 60.40794 | 10.85498 | 10923 ft | 326 kts | 311° |
| 2026-05-07 06:59 | 60.42373 | 10.81999 | 11112 ft | 347 kts | 311° |
| 2026-05-07 06:59 | 60.44039 | 10.78310 | 11454 ft | 360 kts | 311° |
| 2026-05-07 06:59 | 60.45743 | 10.74547 | 12114 ft | 364 kts | 311° |
| 2026-05-07 07:00 | 60.47451 | 10.70773 | 12941 ft | 363 kts | 311° |
| 2026-05-07 07:00 | 60.49158 | 10.66993 | 13800 ft | 364 kts | 310° |
| 2026-05-07 07:00 | 60.50851 | 10.63238 | 14520 ft | 365 kts | 310° |
| 2026-05-07 07:00 | 60.52572 | 10.59414 | 15200 ft | 368 kts | 310° |
| 2026-05-07 07:01 | 60.54307 | 10.55554 | 15886 ft | 371 kts | 309° |
| 2026-05-07 07:01 | 60.56055 | 10.51656 | 16567 ft | 374 kts | 309° |
| 2026-05-07 07:01 | 60.57769 | 10.47828 | 17242 ft | 377 kts | 309° |
| 2026-05-07 07:01 | 60.59539 | 10.43869 | 17909 ft | 380 kts | 309° |
| 2026-05-07 07:02 | 60.61331 | 10.39853 | 18540 ft | 383 kts | 309° |
| 2026-05-07 07:02 | 60.63099 | 10.35882 | 19116 ft | 385 kts | 308° |
| 2026-05-07 07:02 | 60.64907 | 10.31817 | 19785 ft | 386 kts | 308° |
| 2026-05-07 07:02 | 60.66695 | 10.27793 | 20591 ft | 381 kts | 308° |
| 2026-05-07 07:03 | 60.68484 | 10.23757 | 21081 ft | 385 kts | 308° |
| 2026-05-07 07:03 | 60.70291 | 10.19668 | 21501 ft | 390 kts | 308° |
| 2026-05-07 07:03 | 60.72119 | 10.15525 | 22015 ft | 393 kts | 308° |
| 2026-05-07 07:03 | 60.73954 | 10.11360 | 22551 ft | 394 kts | 308° |
| 2026-05-07 07:04 | 60.75795 | 10.07177 | 23047 ft | 397 kts | 308° |
| 2026-05-07 07:04 | 60.77649 | 10.02957 | 23516 ft | 399 kts | 308° |
| 2026-05-07 07:04 | 60.79486 | 9.98770 | 23904 ft | 402 kts | 308° |
| 2026-05-07 07:04 | 60.81416 | 9.94586 | 24270 ft | 405 kts | 310° |
| 2026-05-07 07:05 | 60.83407 | 9.90466 | 24647 ft | 408 kts | 310° |
| 2026-05-07 07:05 | 60.85423 | 9.86350 | 25019 ft | 410 kts | 310° |
| 2026-05-07 07:05 | 60.87460 | 9.82188 | 25354 ft | 412 kts | 310° |
| 2026-05-07 07:05 | 60.89465 | 9.78066 | 25675 ft | 414 kts | 310° |
| 2026-05-07 07:06 | 60.91498 | 9.73856 | 26009 ft | 415 kts | 310° |
| 2026-05-07 07:06 | 60.93533 | 9.69617 | 26342 ft | 417 kts | 310° |
| 2026-05-07 07:06 | 60.95575 | 9.65342 | 26673 ft | 419 kts | 310° |
| 2026-05-07 07:06 | 60.97618 | 9.61051 | 27103 ft | 418 kts | 310° |
| 2026-05-07 07:07 | 60.99645 | 9.56782 | 27608 ft | 415 kts | 310° |
| 2026-05-07 07:07 | 61.01665 | 9.52520 | 28142 ft | 415 kts | 310° |
| 2026-05-07 07:07 | 61.03679 | 9.48260 | 28509 ft | 415 kts | 310° |
| 2026-05-07 07:07 | 61.05694 | 9.43988 | 28940 ft | 415 kts | 310° |
| 2026-05-07 07:08 | 61.07700 | 9.39728 | 29410 ft | 413 kts | 310° |
| 2026-05-07 07:08 | 61.09697 | 9.35481 | 29886 ft | 412 kts | 310° |
| 2026-05-07 07:08 | 61.11695 | 9.31221 | 30283 ft | 411 kts | 310° |
| 2026-05-07 07:08 | 61.13688 | 9.26965 | 30564 ft | 412 kts | 310° |
| 2026-05-07 07:09 | 61.15664 | 9.22733 | 30784 ft | 415 kts | 310° |
| 2026-05-07 07:09 | 61.17673 | 9.18422 | 31039 ft | 416 kts | 310° |
| 2026-05-07 07:09 | 61.19687 | 9.14096 | 31308 ft | 417 kts | 310° |
| 2026-05-07 07:09 | 61.21702 | 9.09757 | 31569 ft | 419 kts | 310° |
| 2026-05-07 07:10 | 61.23726 | 9.05393 | 31885 ft | 418 kts | 310° |
| 2026-05-07 07:10 | 61.25733 | 9.01058 | 32318 ft | 415 kts | 310° |
| 2026-05-07 07:10 | 61.27742 | 8.96711 | 32507 ft | 419 kts | 310° |
| 2026-05-07 07:10 | 61.29770 | 8.92308 | 32651 ft | 423 kts | 310° |
| 2026-05-07 07:11 | 61.31809 | 8.87875 | 32901 ft | 423 kts | 310° |
| 2026-05-07 07:11 | 61.33835 | 8.83461 | 33339 ft | 420 kts | 310° |
| 2026-05-07 07:11 | 61.35841 | 8.79088 | 33894 ft | 414 kts | 310° |
| 2026-05-07 07:11 | 61.37831 | 8.74740 | 34070 ft | 417 kts | 310° |
| 2026-05-07 07:12 | 61.41873 | 8.65862 | 34109 ft | 426 kts | 309° |
| 2026-05-07 07:12 | 61.45968 | 8.56838 | 34118 ft | 433 kts | 310° |
| 2026-05-07 07:13 | 61.50097 | 8.47713 | 34112 ft | 430 kts | 310° |
| 2026-05-07 07:13 | 61.54212 | 8.38658 | 34125 ft | 427 kts | 309° |
| 2026-05-07 07:14 | 61.58271 | 8.29570 | 34117 ft | 425 kts | 309° |
| 2026-05-07 07:14 | 61.62328 | 8.20453 | 33433 ft | 428 kts | 309° |
| 2026-05-07 07:15 | 61.64342 | 8.15925 | 32800 ft | 421 kts | 309° |
| 2026-05-07 07:15 | 61.66340 | 8.11429 | 32094 ft | 418 kts | 309° |
| 2026-05-07 07:15 | 61.68316 | 8.06976 | 31339 ft | 415 kts | 309° |
| 2026-05-07 07:15 | 61.70276 | 8.02549 | 30596 ft | 413 kts | 309° |
| 2026-05-07 07:16 | 61.72227 | 7.98130 | 29800 ft | 409 kts | 309° |
| 2026-05-07 07:16 | 61.74158 | 7.93750 | 28756 ft | 408 kts | 309° |
| 2026-05-07 07:16 | 61.76057 | 7.89433 | 27878 ft | 405 kts | 309° |
| 2026-05-07 07:16 | 61.77966 | 7.85084 | 26971 ft | 403 kts | 309° |
| 2026-05-07 07:17 | 61.79872 | 7.80735 | 26059 ft | 401 kts | 309° |
| 2026-05-07 07:17 | 61.81751 | 7.76439 | 25450 ft | 394 kts | 309° |
| 2026-05-07 07:17 | 61.83601 | 7.72202 | 24786 ft | 389 kts | 309° |
| 2026-05-07 07:17 | 61.85429 | 7.68010 | 24081 ft | 385 kts | 309° |
| 2026-05-07 07:18 | 61.87248 | 7.63825 | 23164 ft | 386 kts | 309° |
| 2026-05-07 07:18 | 61.89053 | 7.59665 | 22425 ft | 380 kts | 309° |
| 2026-05-07 07:18 | 61.90828 | 7.55568 | 21785 ft | 375 kts | 310° |
| 2026-05-07 07:18 | 61.92583 | 7.51509 | 21145 ft | 370 kts | 310° |
| 2026-05-07 07:19 | 61.94312 | 7.47501 | 20478 ft | 367 kts | 310° |
| 2026-05-07 07:19 | 61.96021 | 7.43536 | 19872 ft | 362 kts | 310° |
| 2026-05-07 07:19 | 61.97715 | 7.39596 | 19235 ft | 371 kts | 310° |
| 2026-05-07 07:19 | 61.99482 | 7.35475 | 18594 ft | 379 kts | 310° |
| 2026-05-07 07:20 | 62.01239 | 7.31315 | 17844 ft | 375 kts | 308° |
| 2026-05-07 07:20 | 62.02890 | 7.27052 | 17114 ft | 369 kts | 307° |
| 2026-05-07 07:20 | 62.04472 | 7.22802 | 16480 ft | 364 kts | 307° |
| 2026-05-07 07:20 | 62.06033 | 7.18586 | 15826 ft | 360 kts | 307° |
| 2026-05-07 07:21 | 62.07581 | 7.14424 | 15210 ft | 357 kts | 307° |
| 2026-05-07 07:21 | 62.09119 | 7.10316 | 14578 ft | 358 kts | 307° |
| 2026-05-07 07:21 | 62.10679 | 7.06161 | 13961 ft | 359 kts | 307° |
| 2026-05-07 07:21 | 62.12260 | 7.01947 | 13281 ft | 368 kts | 308° |
| 2026-05-07 07:22 | 62.13873 | 6.97665 | 12643 ft | 369 kts | 309° |
| 2026-05-07 07:22 | 62.15601 | 6.93677 | 12132 ft | 362 kts | 314° |
| 2026-05-07 07:22 | 62.17402 | 6.89950 | 11524 ft | 357 kts | 315° |
| 2026-05-07 07:22 | 62.19192 | 6.86323 | 11173 ft | 347 kts | 315° |
| 2026-05-07 07:23 | 62.20908 | 6.82818 | 10953 ft | 334 kts | 315° |
| 2026-05-07 07:23 | 62.22547 | 6.79421 | 10781 ft | 322 kts | 314° |
| 2026-05-07 07:23 | 62.24119 | 6.76128 | 10635 ft | 310 kts | 314° |
| 2026-05-07 07:23 | 62.25630 | 6.72939 | 10500 ft | 298 kts | 314° |
| 2026-05-07 07:24 | 62.27079 | 6.69865 | 10407 ft | 288 kts | 314° |
| 2026-05-07 07:24 | 62.28468 | 6.66914 | 10280 ft | 280 kts | 314° |
| 2026-05-07 07:24 | 62.29829 | 6.64018 | 10165 ft | 271 kts | 314° |
| 2026-05-07 07:24 | 62.31145 | 6.61213 | 10056 ft | 262 kts | 314° |
| 2026-05-07 07:25 | 62.33745 | 6.55969 | 9591 ft | 253 kts | 328° |
| 2026-05-07 07:25 | 62.35413 | 6.54958 | 9379 ft | 249 kts | 356° |
| 2026-05-07 07:25 | 62.37128 | 6.55525 | 9105 ft | 253 kts | 17° |
| 2026-05-07 07:26 | 62.38755 | 6.56977 | 8874 ft | 259 kts | 21° |
| 2026-05-07 07:26 | 62.40446 | 6.58637 | 8585 ft | 267 kts | 22° |
| 2026-05-07 07:26 | 62.42133 | 6.60282 | 8294 ft | 271 kts | 22° |
| 2026-05-07 07:26 | 62.43853 | 6.61940 | 7993 ft | 270 kts | 21° |
| 2026-05-07 07:27 | 62.45565 | 6.63603 | 7704 ft | 269 kts | 23° |
| 2026-05-07 07:27 | 62.47244 | 6.65407 | 7421 ft | 268 kts | 25° |
| 2026-05-07 07:27 | 62.48896 | 6.67232 | 7145 ft | 266 kts | 25° |
| 2026-05-07 07:27 | 62.50545 | 6.69046 | 6871 ft | 265 kts | 25° |
| 2026-05-07 07:28 | 62.52188 | 6.70844 | 6608 ft | 264 kts | 25° |
| 2026-05-07 07:28 | 62.53804 | 6.72610 | 6496 ft | 256 kts | 25° |
| 2026-05-07 07:28 | 62.55377 | 6.74327 | 6375 ft | 250 kts | 25° |
| 2026-05-07 07:28 | 62.56923 | 6.75922 | 6246 ft | 242 kts | 15° |
| 2026-05-07 07:29 | 62.58540 | 6.76040 | 6056 ft | 231 kts | 342° |
| 2026-05-07 07:29 | 62.60021 | 6.74835 | 5839 ft | 226 kts | 333° |
| 2026-05-07 07:29 | 62.61419 | 6.73401 | 5597 ft | 222 kts | 332° |
| 2026-05-07 07:29 | 62.62797 | 6.71978 | 5413 ft | 216 kts | 332° |
| 2026-05-07 07:30 | 62.64148 | 6.70593 | 5162 ft | 213 kts | 332° |
| 2026-05-07 07:30 | 62.65476 | 6.69243 | 4930 ft | 210 kts | 332° |
| 2026-05-07 07:30 | 62.66660 | 6.67480 | 4659 ft | 203 kts | 304° |
| 2026-05-07 07:30 | 62.67170 | 6.64818 | 4607 ft | 182 kts | 275° |
| 2026-05-07 07:31 | 62.67098 | 6.62179 | 4426 ft | 172 kts | 251° |
| 2026-05-07 07:31 | 62.66593 | 6.59793 | 4308 ft | 176 kts | 243° |
| 2026-05-07 07:31 | 62.66043 | 6.57354 | 4141 ft | 181 kts | 245° |
| 2026-05-07 07:31 | 62.65583 | 6.54860 | 3998 ft | 178 kts | 246° |
| 2026-05-07 07:32 | 62.65101 | 6.52406 | 3868 ft | 176 kts | 244° |
| 2026-05-07 07:32 | 62.64591 | 6.50002 | 3824 ft | 173 kts | 243° |
| 2026-05-07 07:32 | 62.64070 | 6.47614 | 3682 ft | 179 kts | 243° |
| 2026-05-07 07:32 | 62.63531 | 6.45169 | 3432 ft | 177 kts | 243° |
| 2026-05-07 07:33 | 62.63010 | 6.42804 | 3185 ft | 169 kts | 243° |
| 2026-05-07 07:33 | 62.62509 | 6.40534 | 2962 ft | 165 kts | 243° |
| 2026-05-07 07:33 | 62.62017 | 6.38304 | 2730 ft | 162 kts | 243° |
| 2026-05-07 07:33 | 62.61541 | 6.36143 | 2498 ft | 157 kts | 243° |
| 2026-05-07 07:34 | 62.61076 | 6.34030 | 2291 ft | 152 kts | 243° |
| 2026-05-07 07:34 | 62.60619 | 6.31953 | 2093 ft | 153 kts | 243° |
| 2026-05-07 07:34 | 62.60173 | 6.29920 | 1881 ft | 145 kts | 243° |
| 2026-05-07 07:34 | 62.59744 | 6.27965 | 1676 ft | 141 kts | 243° |
| 2026-05-07 07:35 | 62.59321 | 6.26061 | 1468 ft | 138 kts | 243° |
| 2026-05-07 07:35 | 62.58913 | 6.24178 | 1236 ft | 139 kts | 243° |
| 2026-05-07 07:35 | 62.58505 | 6.22310 | 1060 ft | 135 kts | 243° |
| 2026-05-07 07:35 | 62.58105 | 6.20492 | 847 ft | 136 kts | 243° |
| 2026-05-07 07:36 | 62.57695 | 6.18617 | 682 ft | 138 kts | 243° |
| 2026-05-07 07:36 | 62.57283 | 6.16732 | 508 ft | 140 kts | 242° |
| 2026-05-07 07:36 | 62.57001 | 6.15438 | 391 ft | 141 kts | 242° |
| 2026-05-07 07:36 | 62.56599 | 6.13547 | 206 ft | 138 kts | 242° |
| 2026-05-07 07:37 | 62.56198 | 6.11727 | 64 ft | 123 kts | 245° |
| 2026-05-07 07:37 | 62.55926 | 6.10482 | 65 ft | 60 kts | 245° |
| 2026-05-07 07:37 | 62.55801 | 6.09841 | 48 ft | 22 kts | 250° |
| 2026-05-07 07:37 | 62.55783 | 6.09785 | 47 ft | 0 kts | 159° |
| 2026-05-07 07:38 | 62.55783 | 6.09790 | 47 ft | 0 kts | 126° |
| 2026-05-07 07:38 | 62.55782 | 6.09849 | 48 ft | 8 kts | 76° |
| 2026-05-07 07:38 | 62.55821 | 6.10033 | 51 ft | 17 kts | 64° |
| 2026-05-07 07:38 | 62.55893 | 6.10354 | 62 ft | 31 kts | 65° |
| 2026-05-07 07:39 | 62.55942 | 6.10693 | 66 ft | 21 kts | 98° |
| 2026-05-07 07:39 | 62.55908 | 6.10969 | 69 ft | 8 kts | 105° |
| 2026-05-07 07:39 | 62.55900 | 6.11039 | 68 ft | 3 kts | 101° |
| 2026-05-07 07:39 | 62.55899 | 6.11085 | 64 ft | 4 kts | 87° |
| 2026-05-07 07:40 | 62.55912 | 6.11192 | 68 ft | 11 kts | 65° |
| 2026-05-07 07:40 | 62.55933 | 6.11292 | 70 ft | 5 kts | 80° |
| 2026-05-07 07:40 | 62.55921 | 6.11352 | 72 ft | 4 kts | 130° |
| 2026-05-07 07:40 | 62.55898 | 6.11379 | 71 ft | 2 kts | 156° |
| 2026-05-07 07:41 | 62.55894 | 6.11383 | 72 ft | 0 kts | 156° |